sensor_id;sensor_type;location;lat;lon;timestamp;pressure;altitude;pressure_sealevel;temperature;humidity
61488;BME280;47351;53.326;-6.298;2022-10-31T00:00:09;100336.07;;;12.47;81.51
61488;BME280;47351;53.326;-6.298;2022-10-31T00:02:41;100339.88;;;12.49;81.36
61488;BME280;47351;53.326;-6.298;2022-10-31T00:05:13;100338.60;;;12.51;81.28
61488;BME280;47351;53.326;-6.298;2022-10-31T00:07:44;100345.88;;;12.55;81.55
61488;BME280;47351;53.326;-6.298;2022-10-31T00:10:16;100344.91;;;12.62;81.68
61488;BME280;47351;53.326;-6.298;2022-10-31T00:12:47;100340.31;;;12.66;81.79
61488;BME280;47351;53.326;-6.298;2022-10-31T00:15:18;100337.71;;;12.68;81.95
61488;BME280;47351;53.326;-6.298;2022-10-31T00:17:50;100336.41;;;12.70;81.88
61488;BME280;47351;53.326;-6.298;2022-10-31T00:20:21;100344.42;;;12.72;81.99
61488;BME280;47351;53.326;-6.298;2022-10-31T00:22:52;100345.60;;;12.72;81.59
61488;BME280;47351;53.326;-6.298;2022-10-31T00:25:23;100344.14;;;12.71;81.67
61488;BME280;47351;53.326;-6.298;2022-10-31T00:27:55;100343.05;;;12.73;81.81
61488;BME280;47351;53.326;-6.298;2022-10-31T00:30:27;100345.00;;;12.76;81.43
61488;BME280;47351;53.326;-6.298;2022-10-31T00:32:58;100340.11;;;12.75;81.27
61488;BME280;47351;53.326;-6.298;2022-10-31T00:35:30;100337.00;;;12.75;81.49
61488;BME280;47351;53.326;-6.298;2022-10-31T00:38:01;100331.06;;;12.76;81.36
61488;BME280;47351;53.326;-6.298;2022-10-31T00:40:33;100328.09;;;12.75;81.21
61488;BME280;47351;53.326;-6.298;2022-10-31T00:43:04;100325.98;;;12.73;81.34
61488;BME280;47351;53.326;-6.298;2022-10-31T00:45:35;100327.11;;;12.70;81.33
61488;BME280;47351;53.326;-6.298;2022-10-31T00:48:07;100328.43;;;12.66;81.32
61488;BME280;47351;53.326;-6.298;2022-10-31T00:50:39;100324.23;;;12.65;81.54
61488;BME280;47351;53.326;-6.298;2022-10-31T00:53:11;100324.69;;;12.68;81.60
61488;BME280;47351;53.326;-6.298;2022-10-31T00:55:42;100323.92;;;12.71;81.40
61488;BME280;47351;53.326;-6.298;2022-10-31T00:58:14;100314.63;;;12.71;81.22
61488;BME280;47351;53.326;-6.298;2022-10-31T01:00:48;100310.75;;;12.72;81.14
61488;BME280;47351;53.326;-6.298;2022-10-31T01:03:26;100304.18;;;12.71;81.03
61488;BME280;47351;53.326;-6.298;2022-10-31T01:05:59;100306.41;;;12.71;80.78
61488;BME280;47351;53.326;-6.298;2022-10-31T01:08:35;100305.81;;;12.73;80.77
61488;BME280;47351;53.326;-6.298;2022-10-31T01:11:13;100303.58;;;12.75;80.66
61488;BME280;47351;53.326;-6.298;2022-10-31T01:13:46;100302.29;;;12.77;80.55
61488;BME280;47351;53.326;-6.298;2022-10-31T01:16:21;100299.52;;;12.80;80.48
61488;BME280;47351;53.326;-6.298;2022-10-31T01:18:52;100294.05;;;12.84;80.39
61488;BME280;47351;53.326;-6.298;2022-10-31T01:21:25;100292.62;;;12.89;80.34
61488;BME280;47351;53.326;-6.298;2022-10-31T01:24:00;100291.84;;;12.94;80.21
61488;BME280;47351;53.326;-6.298;2022-10-31T01:26:33;100287.66;;;12.97;79.89
61488;BME280;47351;53.326;-6.298;2022-10-31T01:29:06;100288.37;;;12.99;79.96
61488;BME280;47351;53.326;-6.298;2022-10-31T01:31:40;100281.17;;;12.99;79.79
61488;BME280;47351;53.326;-6.298;2022-10-31T01:34:15;100283.33;;;12.99;79.84
61488;BME280;47351;53.326;-6.298;2022-10-31T01:36:47;100278.66;;;13.02;80.17
61488;BME280;47351;53.326;-6.298;2022-10-31T01:39:21;100282.71;;;13.06;80.41
61488;BME280;47351;53.326;-6.298;2022-10-31T01:41:53;100277.17;;;13.06;80.40
61488;BME280;47351;53.326;-6.298;2022-10-31T01:44:50;100273.30;;;13.07;80.61
61488;BME280;47351;53.326;-6.298;2022-10-31T01:47:33;100270.80;;;13.05;80.51
61488;BME280;47351;53.326;-6.298;2022-10-31T01:50:12;100262.49;;;13.03;80.57
61488;BME280;47351;53.326;-6.298;2022-10-31T01:52:46;100265.48;;;13.03;80.48
61488;BME280;47351;53.326;-6.298;2022-10-31T01:55:22;100268.41;;;13.03;80.32
61488;BME280;47351;53.326;-6.298;2022-10-31T01:58:02;100260.38;;;13.03;80.25
61488;BME280;47351;53.326;-6.298;2022-10-31T02:00:35;100258.79;;;13.01;80.25
61488;BME280;47351;53.326;-6.298;2022-10-31T02:03:06;100249.22;;;13.00;80.28
61488;BME280;47351;53.326;-6.298;2022-10-31T02:05:37;100241.41;;;13.02;80.25
61488;BME280;47351;53.326;-6.298;2022-10-31T02:08:12;100244.89;;;13.06;80.08
61488;BME280;47351;53.326;-6.298;2022-10-31T02:10:45;100243.20;;;13.07;79.95
61488;BME280;47351;53.326;-6.298;2022-10-31T02:13:16;100241.96;;;13.06;79.74
61488;BME280;47351;53.326;-6.298;2022-10-31T02:15:51;100245.98;;;13.07;79.52
61488;BME280;47351;53.326;-6.298;2022-10-31T02:18:24;100249.35;;;13.09;79.36
61488;BME280;47351;53.326;-6.298;2022-10-31T02:21:13;100245.10;;;13.09;79.30
61488;BME280;47351;53.326;-6.298;2022-10-31T02:24:17;100241.19;;;13.08;79.26
61488;BME280;47351;53.326;-6.298;2022-10-31T02:27:09;100246.80;;;13.07;79.21
61488;BME280;47351;53.326;-6.298;2022-10-31T02:30:05;100236.30;;;13.07;79.37
61488;BME280;47351;53.326;-6.298;2022-10-31T02:35:40;100227.67;;;13.12;79.65
61488;BME280;47351;53.326;-6.298;2022-10-31T02:38:24;100222.94;;;13.12;79.80
61488;BME280;47351;53.326;-6.298;2022-10-31T02:41:03;100219.05;;;13.16;79.53
61488;BME280;47351;53.326;-6.298;2022-10-31T02:44:03;100221.27;;;13.22;79.33
61488;BME280;47351;53.326;-6.298;2022-10-31T02:46:42;100211.68;;;13.24;79.17
61488;BME280;47351;53.326;-6.298;2022-10-31T02:49:21;100213.38;;;13.25;78.95
61488;BME280;47351;53.326;-6.298;2022-10-31T02:51:54;100218.15;;;13.27;78.99
61488;BME280;47351;53.326;-6.298;2022-10-31T02:54:27;100217.09;;;13.28;78.87
61488;BME280;47351;53.326;-6.298;2022-10-31T02:57:02;100211.70;;;13.27;78.79
61488;BME280;47351;53.326;-6.298;2022-10-31T02:59:35;100204.89;;;13.26;78.88
61488;BME280;47351;53.326;-6.298;2022-10-31T03:02:32;100197.33;;;13.26;79.00
61488;BME280;47351;53.326;-6.298;2022-10-31T03:05:30;100190.21;;;13.27;78.93
61488;BME280;47351;53.326;-6.298;2022-10-31T03:08:11;100185.27;;;13.28;78.98
61488;BME280;47351;53.326;-6.298;2022-10-31T03:10:49;100183.95;;;13.27;78.97
61488;BME280;47351;53.326;-6.298;2022-10-31T03:13:29;100191.37;;;13.26;79.01
61488;BME280;47351;53.326;-6.298;2022-10-31T03:16:09;100192.23;;;13.26;79.06
61488;BME280;47351;53.326;-6.298;2022-10-31T03:18:46;100190.96;;;13.27;79.26
61488;BME280;47351;53.326;-6.298;2022-10-31T03:21:22;100193.45;;;13.27;79.38
61488;BME280;47351;53.326;-6.298;2022-10-31T03:23:58;100197.45;;;13.26;79.63
61488;BME280;47351;53.326;-6.298;2022-10-31T03:26:31;100194.38;;;13.25;79.74
61488;BME280;47351;53.326;-6.298;2022-10-31T03:29:06;100194.45;;;13.24;79.79
61488;BME280;47351;53.326;-6.298;2022-10-31T03:31:44;100191.33;;;13.21;79.66
61488;BME280;47351;53.326;-6.298;2022-10-31T03:34:19;100186.33;;;13.19;79.72
61488;BME280;47351;53.326;-6.298;2022-10-31T03:36:54;100185.73;;;13.16;79.74
61488;BME280;47351;53.326;-6.298;2022-10-31T03:39:26;100187.05;;;13.16;79.89
61488;BME280;47351;53.326;-6.298;2022-10-31T03:42:02;100184.23;;;13.16;79.91
61488;BME280;47351;53.326;-6.298;2022-10-31T03:44:37;100186.11;;;13.15;79.86
61488;BME280;47351;53.326;-6.298;2022-10-31T03:47:09;100184.45;;;13.14;79.82
61488;BME280;47351;53.326;-6.298;2022-10-31T03:49:41;100181.84;;;13.13;79.87
61488;BME280;47351;53.326;-6.298;2022-10-31T03:52:18;100179.48;;;13.12;79.86
61488;BME280;47351;53.326;-6.298;2022-10-31T03:54:56;100179.88;;;13.11;79.79
61488;BME280;47351;53.326;-6.298;2022-10-31T03:57:35;100180.41;;;13.11;79.93
61488;BME280;47351;53.326;-6.298;2022-10-31T04:00:12;100188.08;;;13.12;79.88
61488;BME280;47351;53.326;-6.298;2022-10-31T04:02:49;100185.19;;;13.12;79.80
61488;BME280;47351;53.326;-6.298;2022-10-31T04:05:22;100186.70;;;13.11;79.59
61488;BME280;47351;53.326;-6.298;2022-10-31T04:07:58;100186.92;;;13.11;79.61
61488;BME280;47351;53.326;-6.298;2022-10-31T04:10:30;100181.98;;;13.10;79.64
61488;BME280;47351;53.326;-6.298;2022-10-31T04:13:05;100174.02;;;13.10;79.87
61488;BME280;47351;53.326;-6.298;2022-10-31T04:15:46;100172.91;;;13.10;80.26
61488;BME280;47351;53.326;-6.298;2022-10-31T04:18:19;100172.41;;;13.11;80.55
61488;BME280;47351;53.326;-6.298;2022-10-31T04:20:58;100173.70;;;13.11;80.65
61488;BME280;47351;53.326;-6.298;2022-10-31T04:23:31;100174.64;;;13.10;80.97
61488;BME280;47351;53.326;-6.298;2022-10-31T04:26:07;100174.90;;;13.11;81.00
61488;BME280;47351;53.326;-6.298;2022-10-31T04:28:39;100175.09;;;13.13;80.78
61488;BME280;47351;53.326;-6.298;2022-10-31T04:31:12;100175.42;;;13.13;80.73
61488;BME280;47351;53.326;-6.298;2022-10-31T04:33:44;100175.91;;;13.12;80.61
61488;BME280;47351;53.326;-6.298;2022-10-31T04:36:15;100170.97;;;13.10;80.70
61488;BME280;47351;53.326;-6.298;2022-10-31T04:38:46;100175.33;;;13.08;80.58
61488;BME280;47351;53.326;-6.298;2022-10-31T04:41:38;100184.15;;;13.09;80.39
61488;BME280;47351;53.326;-6.298;2022-10-31T04:44:16;100175.71;;;13.12;80.48
61488;BME280;47351;53.326;-6.298;2022-10-31T04:46:50;100175.36;;;13.18;80.48
61488;BME280;47351;53.326;-6.298;2022-10-31T04:49:21;100171.20;;;13.22;80.23
61488;BME280;47351;53.326;-6.298;2022-10-31T04:51:52;100161.14;;;13.24;80.07
61488;BME280;47351;53.326;-6.298;2022-10-31T04:54:23;100156.17;;;13.25;80.02
61488;BME280;47351;53.326;-6.298;2022-10-31T04:57:30;100159.15;;;13.28;79.89
61488;BME280;47351;53.326;-6.298;2022-10-31T05:00:02;100157.60;;;13.27;79.79
61488;BME280;47351;53.326;-6.298;2022-10-31T05:02:41;100158.17;;;13.27;79.74
61488;BME280;47351;53.326;-6.298;2022-10-31T05:05:13;100156.97;;;13.29;79.46
61488;BME280;47351;53.326;-6.298;2022-10-31T05:07:47;100150.95;;;13.33;79.18
61488;BME280;47351;53.326;-6.298;2022-10-31T05:10:21;100145.34;;;13.36;78.97
61488;BME280;47351;53.326;-6.298;2022-10-31T05:12:55;100147.33;;;13.40;78.69
61488;BME280;47351;53.326;-6.298;2022-10-31T05:15:47;100143.02;;;13.43;78.44
61488;BME280;47351;53.326;-6.298;2022-10-31T05:18:23;100143.52;;;13.45;78.38
61488;BME280;47351;53.326;-6.298;2022-10-31T05:21:03;100145.42;;;13.45;78.16
61488;BME280;47351;53.326;-6.298;2022-10-31T05:23:38;100144.70;;;13.47;78.30
61488;BME280;47351;53.326;-6.298;2022-10-31T05:26:17;100141.95;;;13.48;78.23
61488;BME280;47351;53.326;-6.298;2022-10-31T05:28:49;100145.52;;;13.51;78.27
61488;BME280;47351;53.326;-6.298;2022-10-31T05:31:21;100142.52;;;13.51;78.21
61488;BME280;47351;53.326;-6.298;2022-10-31T05:33:52;100140.98;;;13.51;78.22
61488;BME280;47351;53.326;-6.298;2022-10-31T05:36:56;100141.84;;;13.53;78.26
61488;BME280;47351;53.326;-6.298;2022-10-31T05:39:27;100133.19;;;13.53;78.44
61488;BME280;47351;53.326;-6.298;2022-10-31T05:42:01;100127.02;;;13.52;78.50
61488;BME280;47351;53.326;-6.298;2022-10-31T05:44:33;100123.11;;;13.51;78.59
61488;BME280;47351;53.326;-6.298;2022-10-31T05:47:26;100125.36;;;13.49;78.79
61488;BME280;47351;53.326;-6.298;2022-10-31T05:49:58;100129.25;;;13.49;79.35
61488;BME280;47351;53.326;-6.298;2022-10-31T05:52:57;100138.02;;;13.51;79.53
61488;BME280;47351;53.326;-6.298;2022-10-31T05:55:33;100140.86;;;13.52;79.68
61488;BME280;47351;53.326;-6.298;2022-10-31T05:58:13;100140.92;;;13.54;79.52
61488;BME280;47351;53.326;-6.298;2022-10-31T06:00:51;100147.00;;;13.56;79.67
61488;BME280;47351;53.326;-6.298;2022-10-31T06:03:22;100145.52;;;13.58;79.48
61488;BME280;47351;53.326;-6.298;2022-10-31T06:06:02;100140.83;;;13.60;79.46
61488;BME280;47351;53.326;-6.298;2022-10-31T06:08:41;100148.33;;;13.61;79.53
61488;BME280;47351;53.326;-6.298;2022-10-31T06:11:17;100147.23;;;13.63;79.40
61488;BME280;47351;53.326;-6.298;2022-10-31T06:14:04;100147.48;;;13.65;79.47
61488;BME280;47351;53.326;-6.298;2022-10-31T06:17:05;100141.20;;;13.65;79.63
61488;BME280;47351;53.326;-6.298;2022-10-31T06:19:48;100138.21;;;13.64;79.52
61488;BME280;47351;53.326;-6.298;2022-10-31T06:22:22;100138.70;;;13.62;79.74
61488;BME280;47351;53.326;-6.298;2022-10-31T06:24:54;100136.85;;;13.60;79.74
61488;BME280;47351;53.326;-6.298;2022-10-31T06:27:37;100132.70;;;13.57;79.82
61488;BME280;47351;53.326;-6.298;2022-10-31T06:30:14;100130.72;;;13.54;79.99
61488;BME280;47351;53.326;-6.298;2022-10-31T06:32:47;100130.87;;;13.52;80.03
61488;BME280;47351;53.326;-6.298;2022-10-31T06:35:19;100131.02;;;13.49;80.02
61488;BME280;47351;53.326;-6.298;2022-10-31T06:37:53;100127.88;;;13.47;80.23
61488;BME280;47351;53.326;-6.298;2022-10-31T06:40:32;100130.00;;;13.45;80.30
61488;BME280;47351;53.326;-6.298;2022-10-31T06:43:26;100131.15;;;13.43;80.35
61488;BME280;47351;53.326;-6.298;2022-10-31T06:46:20;100131.29;;;13.44;80.28
61488;BME280;47351;53.326;-6.298;2022-10-31T06:49:24;100126.77;;;13.47;80.40
61488;BME280;47351;53.326;-6.298;2022-10-31T06:51:57;100122.65;;;13.51;80.27
61488;BME280;47351;53.326;-6.298;2022-10-31T06:54:28;100119.08;;;13.53;80.43
61488;BME280;47351;53.326;-6.298;2022-10-31T06:56:59;100114.81;;;13.53;80.61
61488;BME280;47351;53.326;-6.298;2022-10-31T06:59:31;100117.32;;;13.51;80.74
61488;BME280;47351;53.326;-6.298;2022-10-31T07:02:14;100122.96;;;13.49;80.74
61488;BME280;47351;53.326;-6.298;2022-10-31T07:04:45;100125.17;;;13.47;80.94
61488;BME280;47351;53.326;-6.298;2022-10-31T07:07:17;100128.29;;;13.47;81.31
61488;BME280;47351;53.326;-6.298;2022-10-31T07:09:52;100128.13;;;13.48;81.40
61488;BME280;47351;53.326;-6.298;2022-10-31T07:12:33;100138.98;;;13.50;81.46
61488;BME280;47351;53.326;-6.298;2022-10-31T07:15:06;100144.21;;;13.51;81.94
61488;BME280;47351;53.326;-6.298;2022-10-31T07:17:39;100144.11;;;13.53;82.22
61488;BME280;47351;53.326;-6.298;2022-10-31T07:20:11;100148.32;;;13.53;82.42
61488;BME280;47351;53.326;-6.298;2022-10-31T07:22:43;100145.64;;;13.53;82.29
61488;BME280;47351;53.326;-6.298;2022-10-31T07:25:20;100144.09;;;13.54;82.49
61488;BME280;47351;53.326;-6.298;2022-10-31T07:28:07;100146.73;;;13.54;82.53
61488;BME280;47351;53.326;-6.298;2022-10-31T07:30:38;100145.03;;;13.55;82.65
61488;BME280;47351;53.326;-6.298;2022-10-31T07:33:10;100145.72;;;13.56;82.76
61488;BME280;47351;53.326;-6.298;2022-10-31T07:36:08;100150.27;;;13.56;82.88
61488;BME280;47351;53.326;-6.298;2022-10-31T07:38:42;100159.34;;;13.55;82.87
61488;BME280;47351;53.326;-6.298;2022-10-31T07:41:14;100156.03;;;13.54;82.73
61488;BME280;47351;53.326;-6.298;2022-10-31T07:43:46;100158.56;;;13.54;82.73
61488;BME280;47351;53.326;-6.298;2022-10-31T07:46:21;100161.56;;;13.56;82.66
61488;BME280;47351;53.326;-6.298;2022-10-31T07:49:09;100169.49;;;13.58;82.35
61488;BME280;47351;53.326;-6.298;2022-10-31T07:52:15;100163.33;;;13.59;82.52
61488;BME280;47351;53.326;-6.298;2022-10-31T07:55:06;100169.79;;;13.56;82.72
61488;BME280;47351;53.326;-6.298;2022-10-31T07:57:38;100174.64;;;13.53;82.88
61488;BME280;47351;53.326;-6.298;2022-10-31T08:00:12;100175.94;;;13.51;82.84
61488;BME280;47351;53.326;-6.298;2022-10-31T08:02:45;100170.33;;;13.50;82.80
61488;BME280;47351;53.326;-6.298;2022-10-31T08:05:52;100170.94;;;13.51;82.61
61488;BME280;47351;53.326;-6.298;2022-10-31T08:08:40;100167.48;;;13.53;82.48
61488;BME280;47351;53.326;-6.298;2022-10-31T08:11:11;100169.56;;;13.58;82.28
61488;BME280;47351;53.326;-6.298;2022-10-31T08:13:44;100171.41;;;13.64;82.04
61488;BME280;47351;53.326;-6.298;2022-10-31T08:16:16;100169.49;;;13.71;81.70
61488;BME280;47351;53.326;-6.298;2022-10-31T08:19:01;100168.19;;;13.81;81.30
61488;BME280;47351;53.326;-6.298;2022-10-31T08:21:32;100166.08;;;13.90;81.03
61488;BME280;47351;53.326;-6.298;2022-10-31T08:24:05;100164.25;;;13.96;80.68
61488;BME280;47351;53.326;-6.298;2022-10-31T08:26:36;100167.32;;;14.04;80.08
61488;BME280;47351;53.326;-6.298;2022-10-31T08:29:09;100171.39;;;14.16;79.73
61488;BME280;47351;53.326;-6.298;2022-10-31T08:31:42;100162.56;;;14.26;79.35
61488;BME280;47351;53.326;-6.298;2022-10-31T08:34:31;100161.05;;;14.36;78.72
61488;BME280;47351;53.326;-6.298;2022-10-31T08:37:20;100159.45;;;14.43;78.09
61488;BME280;47351;53.326;-6.298;2022-10-31T08:39:55;100159.66;;;14.49;77.33
61488;BME280;47351;53.326;-6.298;2022-10-31T08:42:26;100155.13;;;14.55;76.91
61488;BME280;47351;53.326;-6.298;2022-10-31T08:44:58;100148.95;;;14.61;76.58
61488;BME280;47351;53.326;-6.298;2022-10-31T08:47:30;100150.26;;;14.68;75.91
61488;BME280;47351;53.326;-6.298;2022-10-31T08:50:01;100154.66;;;14.74;75.53
61488;BME280;47351;53.326;-6.298;2022-10-31T08:52:33;100154.16;;;14.82;74.92
61488;BME280;47351;53.326;-6.298;2022-10-31T08:55:25;100153.89;;;14.95;74.65
61488;BME280;47351;53.326;-6.298;2022-10-31T08:58:06;100156.61;;;15.10;73.89
61488;BME280;47351;53.326;-6.298;2022-10-31T09:00:51;100163.42;;;15.23;73.45
61488;BME280;47351;53.326;-6.298;2022-10-31T09:03:25;100165.81;;;15.30;73.13
61488;BME280;47351;53.326;-6.298;2022-10-31T09:05:58;100167.20;;;15.32;72.65
61488;BME280;47351;53.326;-6.298;2022-10-31T09:08:31;100163.70;;;15.31;72.76
61488;BME280;47351;53.326;-6.298;2022-10-31T09:11:04;100165.24;;;15.30;73.06
61488;BME280;47351;53.326;-6.298;2022-10-31T09:14:02;100171.88;;;15.29;73.15
61488;BME280;47351;53.326;-6.298;2022-10-31T09:16:53;100172.46;;;15.23;73.11
61488;BME280;47351;53.326;-6.298;2022-10-31T09:19:30;100169.86;;;15.14;73.32
61488;BME280;47351;53.326;-6.298;2022-10-31T09:22:02;100167.44;;;15.08;73.75
61488;BME280;47351;53.326;-6.298;2022-10-31T09:24:34;100173.38;;;15.03;74.12
61488;BME280;47351;53.326;-6.298;2022-10-31T09:27:05;100168.89;;;15.00;74.27
61488;BME280;47351;53.326;-6.298;2022-10-31T09:29:42;100175.13;;;14.96;74.48
61488;BME280;47351;53.326;-6.298;2022-10-31T09:32:14;100175.40;;;14.92;74.67
61488;BME280;47351;53.326;-6.298;2022-10-31T09:34:48;100178.99;;;14.89;74.82
61488;BME280;47351;53.326;-6.298;2022-10-31T09:37:22;100178.17;;;14.85;75.04
61488;BME280;47351;53.326;-6.298;2022-10-31T09:39:53;100176.67;;;14.84;75.07
61488;BME280;47351;53.326;-6.298;2022-10-31T09:42:47;100174.17;;;14.85;74.91
61488;BME280;47351;53.326;-6.298;2022-10-31T09:45:28;100175.35;;;14.89;74.63
61488;BME280;47351;53.326;-6.298;2022-10-31T09:48:30;100175.83;;;14.93;74.43
61488;BME280;47351;53.326;-6.298;2022-10-31T09:51:19;100169.55;;;15.00;74.22
61488;BME280;47351;53.326;-6.298;2022-10-31T09:54:04;100163.83;;;15.08;74.12
61488;BME280;47351;53.326;-6.298;2022-10-31T09:56:37;100160.48;;;15.20;73.78
61488;BME280;47351;53.326;-6.298;2022-10-31T09:59:24;100160.61;;;15.34;73.10
61488;BME280;47351;53.326;-6.298;2022-10-31T10:01:58;100155.22;;;15.50;72.80
61488;BME280;47351;53.326;-6.298;2022-10-31T10:04:43;100160.13;;;15.67;72.40
61488;BME280;47351;53.326;-6.298;2022-10-31T10:07:24;100166.38;;;15.84;71.82
61488;BME280;47351;53.326;-6.298;2022-10-31T10:10:18;100160.26;;;16.07;70.86
61488;BME280;47351;53.326;-6.298;2022-10-31T10:13:28;100151.23;;;16.26;69.79
61488;BME280;47351;53.326;-6.298;2022-10-31T10:16:14;100151.22;;;16.41;69.17
61488;BME280;47351;53.326;-6.298;2022-10-31T10:19:00;100154.28;;;16.52;69.11
61488;BME280;47351;53.326;-6.298;2022-10-31T10:21:41;100144.84;;;16.60;69.02
61488;BME280;47351;53.326;-6.298;2022-10-31T10:24:27;100146.92;;;16.68;68.05
61488;BME280;47351;53.326;-6.298;2022-10-31T10:27:10;100143.34;;;16.71;67.42
61488;BME280;47351;53.326;-6.298;2022-10-31T10:29:52;100143.97;;;16.76;67.77
61488;BME280;47351;53.326;-6.298;2022-10-31T10:32:31;100143.45;;;16.79;67.40
61488;BME280;47351;53.326;-6.298;2022-10-31T10:35:14;100144.02;;;16.77;67.53
61488;BME280;47351;53.326;-6.298;2022-10-31T10:37:51;100140.97;;;16.82;67.23
61488;BME280;47351;53.326;-6.298;2022-10-31T10:40:25;100138.19;;;17.03;66.29
61488;BME280;47351;53.326;-6.298;2022-10-31T10:43:05;100131.26;;;17.33;65.43
61488;BME280;47351;53.326;-6.298;2022-10-31T10:46:12;100129.06;;;17.60;64.61
61488;BME280;47351;53.326;-6.298;2022-10-31T10:49:09;100132.77;;;17.66;64.27
61488;BME280;47351;53.326;-6.298;2022-10-31T10:51:46;100139.14;;;17.68;63.38
61488;BME280;47351;53.326;-6.298;2022-10-31T10:55:02;100138.23;;;18.28;61.99
61488;BME280;47351;53.326;-6.298;2022-10-31T10:57:49;100128.95;;;19.04;61.19
61488;BME280;47351;53.326;-6.298;2022-10-31T11:00:26;100126.62;;;19.30;61.36
61488;BME280;47351;53.326;-6.298;2022-10-31T11:02:58;100129.27;;;19.73;61.33
61488;BME280;47351;53.326;-6.298;2022-10-31T11:05:36;100124.49;;;20.61;59.24
61488;BME280;47351;53.326;-6.298;2022-10-31T11:08:08;100120.52;;;21.20;57.12
61488;BME280;47351;53.326;-6.298;2022-10-31T11:10:40;100127.61;;;21.12;56.54
61488;BME280;47351;53.326;-6.298;2022-10-31T11:13:22;100123.53;;;21.07;55.49
61488;BME280;47351;53.326;-6.298;2022-10-31T11:16:03;100117.48;;;21.36;54.91
61488;BME280;47351;53.326;-6.298;2022-10-31T11:18:39;100112.35;;;21.41;55.27
61488;BME280;47351;53.326;-6.298;2022-10-31T11:21:24;100109.77;;;21.18;55.14
61488;BME280;47351;53.326;-6.298;2022-10-31T11:24:08;100111.45;;;21.13;54.91
61488;BME280;47351;53.326;-6.298;2022-10-31T11:26:44;100114.86;;;21.15;54.60
61488;BME280;47351;53.326;-6.298;2022-10-31T11:29:22;100118.89;;;22.12;53.66
61488;BME280;47351;53.326;-6.298;2022-10-31T11:31:56;100112.90;;;23.80;51.50
61488;BME280;47351;53.326;-6.298;2022-10-31T11:34:32;100112.87;;;25.21;49.10
61488;BME280;47351;53.326;-6.298;2022-10-31T11:37:11;100112.04;;;25.71;47.92
61488;BME280;47351;53.326;-6.298;2022-10-31T11:39:46;100110.27;;;25.68;46.66
61488;BME280;47351;53.326;-6.298;2022-10-31T11:42:28;100113.21;;;24.77;47.47
61488;BME280;47351;53.326;-6.298;2022-10-31T11:45:01;100111.81;;;23.85;48.66
61488;BME280;47351;53.326;-6.298;2022-10-31T11:47:36;100108.59;;;22.88;49.17
61488;BME280;47351;53.326;-6.298;2022-10-31T11:50:19;100110.38;;;21.95;49.98
61488;BME280;47351;53.326;-6.298;2022-10-31T11:52:51;100107.20;;;21.10;51.57
61488;BME280;47351;53.326;-6.298;2022-10-31T11:55:34;100103.43;;;20.40;52.54
61488;BME280;47351;53.326;-6.298;2022-10-31T11:58:22;100106.47;;;19.94;53.98
61488;BME280;47351;53.326;-6.298;2022-10-31T12:00:55;100102.25;;;19.66;54.95
61488;BME280;47351;53.326;-6.298;2022-10-31T12:03:36;100095.92;;;19.41;55.64
61488;BME280;47351;53.326;-6.298;2022-10-31T12:06:12;100097.40;;;19.17;56.30
61488;BME280;47351;53.326;-6.298;2022-10-31T12:08:45;100088.04;;;19.08;56.77
61488;BME280;47351;53.326;-6.298;2022-10-31T12:11:37;100084.04;;;19.29;56.70
61488;BME280;47351;53.326;-6.298;2022-10-31T12:14:20;100079.60;;;19.64;56.71
61488;BME280;47351;53.326;-6.298;2022-10-31T12:16:59;100064.74;;;20.08;55.62
61488;BME280;47351;53.326;-6.298;2022-10-31T12:19:38;100060.40;;;19.99;56.11
61488;BME280;47351;53.326;-6.298;2022-10-31T12:22:20;100053.73;;;19.87;56.51
61488;BME280;47351;53.326;-6.298;2022-10-31T12:25:10;100048.50;;;19.86;56.60
61488;BME280;47351;53.326;-6.298;2022-10-31T12:27:56;100041.77;;;20.08;55.81
61488;BME280;47351;53.326;-6.298;2022-10-31T12:30:35;100041.83;;;20.09;55.76
61488;BME280;47351;53.326;-6.298;2022-10-31T12:33:25;100041.83;;;20.02;56.09
61488;BME280;47351;53.326;-6.298;2022-10-31T12:36:12;100043.39;;;19.82;56.05
61488;BME280;47351;53.326;-6.298;2022-10-31T12:39:02;100056.06;;;19.49;56.74
61488;BME280;47351;53.326;-6.298;2022-10-31T12:41:47;100055.83;;;19.13;57.10
61488;BME280;47351;53.326;-6.298;2022-10-31T12:44:37;100046.48;;;18.81;57.88
61488;BME280;47351;53.326;-6.298;2022-10-31T12:47:29;100037.36;;;18.54;58.03
61488;BME280;47351;53.326;-6.298;2022-10-31T12:50:15;100044.23;;;18.34;58.52
61488;BME280;47351;53.326;-6.298;2022-10-31T12:52:56;100047.58;;;18.13;59.20
61488;BME280;47351;53.326;-6.298;2022-10-31T12:55:40;100042.42;;;17.94;59.89
61488;BME280;47351;53.326;-6.298;2022-10-31T12:58:17;100032.38;;;17.75;60.46
61488;BME280;47351;53.326;-6.298;2022-10-31T13:00:58;100031.42;;;17.56;60.92
61488;BME280;47351;53.326;-6.298;2022-10-31T13:03:38;100029.66;;;17.39;61.15
61488;BME280;47351;53.326;-6.298;2022-10-31T13:06:15;100028.11;;;17.23;61.55
61488;BME280;47351;53.326;-6.298;2022-10-31T13:08:51;100022.73;;;17.11;61.89
61488;BME280;47351;53.326;-6.298;2022-10-31T13:11:26;100025.65;;;16.97;62.30
61488;BME280;47351;53.326;-6.298;2022-10-31T13:14:05;100026.63;;;16.81;62.78
61488;BME280;47351;53.326;-6.298;2022-10-31T13:16:40;100026.65;;;16.64;63.29
61488;BME280;47351;53.326;-6.298;2022-10-31T13:19:18;100024.77;;;16.47;63.79
61488;BME280;47351;53.326;-6.298;2022-10-31T13:21:56;100023.90;;;16.30;64.42
61488;BME280;47351;53.326;-6.298;2022-10-31T13:24:34;100023.85;;;16.15;64.98
61488;BME280;47351;53.326;-6.298;2022-10-31T13:27:14;100022.18;;;16.04;65.64
61488;BME280;47351;53.326;-6.298;2022-10-31T13:29:55;100020.08;;;15.95;66.21
61488;BME280;47351;53.326;-6.298;2022-10-31T13:32:36;100016.31;;;15.87;67.22
61488;BME280;47351;53.326;-6.298;2022-10-31T13:35:15;100016.19;;;15.80;67.77
61488;BME280;47351;53.326;-6.298;2022-10-31T13:37:52;100016.52;;;15.70;68.15
61488;BME280;47351;53.326;-6.298;2022-10-31T13:40:35;100020.02;;;15.60;68.43